createdAt,value
2022-11-23T00:00:49.242Z,3.65
2022-11-23T00:03:17.278Z,3.76
2022-11-23T00:05:45.145Z,3.80
2022-11-23T00:08:12.894Z,3.82
2022-11-23T00:10:40.732Z,3.81
2022-11-23T00:13:09.919Z,3.71
2022-11-23T00:15:37.681Z,3.92
2022-11-23T00:18:05.519Z,3.88
2022-11-23T00:20:33.349Z,3.65
2022-11-23T00:23:01.126Z,3.76
2022-11-23T00:25:29.567Z,3.72
2022-11-23T00:27:57.394Z,4.10
2022-11-23T00:30:26.664Z,3.83
2022-11-23T00:32:56.425Z,3.68
2022-11-23T00:35:24.749Z,4.12
2022-11-23T00:37:52.558Z,3.94
2022-11-23T00:40:20.345Z,3.98
2022-11-23T00:42:48.102Z,3.91
2022-11-23T00:45:16.168Z,3.93
2022-11-23T00:47:45.325Z,3.93
2022-11-23T00:50:13.172Z,3.95
2022-11-23T00:52:40.975Z,3.84
2022-11-23T00:55:09.428Z,3.91
2022-11-23T00:57:37.466Z,3.83
2022-11-23T01:00:06.386Z,3.76
2022-11-23T01:02:35.881Z,3.63
2022-11-23T01:05:05.390Z,3.63
2022-11-23T01:07:33.554Z,3.53
2022-11-23T01:10:01.642Z,3.61
2022-11-23T01:12:30.058Z,3.73
2022-11-23T01:14:57.885Z,3.48
2022-11-23T01:17:25.619Z,3.28
2022-11-23T01:19:53.426Z,3.37
2022-11-23T01:22:22.951Z,3.33
2022-11-23T01:24:51.438Z,3.48
2022-11-23T01:27:19.225Z,3.46
2022-11-23T01:29:46.975Z,3.20
2022-11-23T01:32:14.773Z,3.68
2022-11-23T01:34:42.626Z,3.73
2022-11-23T01:37:10.483Z,3.76
2022-11-23T01:39:39.995Z,3.74
2022-11-23T01:42:08.510Z,3.78
2022-11-23T01:44:38.801Z,3.60
2022-11-23T01:47:08.400Z,3.59
2022-11-23T01:49:40.051Z,3.78
2022-11-23T01:52:12.603Z,3.58
2022-11-23T01:54:47.664Z,3.50
2022-11-23T01:57:20.382Z,3.60
2022-11-23T01:59:49.956Z,3.75
2022-11-23T02:02:18.940Z,4.01
2022-11-23T02:04:51.553Z,3.88
2022-11-23T02:07:20.529Z,3.46
2022-11-23T02:09:50.309Z,3.78
2022-11-23T02:12:18.151Z,3.56
2022-11-23T02:14:47.030Z,3.49
2022-11-23T02:17:15.092Z,3.62
2022-11-23T02:19:52.838Z,3.43
2022-11-23T02:22:27.827Z,3.38
2022-11-23T02:24:57.457Z,3.64
2022-11-23T02:27:28.680Z,3.74
2022-11-23T02:30:01.243Z,3.71
2022-11-23T02:32:30.541Z,3.60
2022-11-23T02:39:14.630Z,3.74
2022-11-23T02:41:44.897Z,3.78
2022-11-23T02:44:30.110Z,3.71
2022-11-23T02:46:59.227Z,3.93
2022-11-23T02:49:27.290Z,3.58
2022-11-23T02:51:55.157Z,4.01
2022-11-23T02:54:26.179Z,3.80
2022-11-23T02:56:54.059Z,3.72
2022-11-23T02:59:23.277Z,3.83
2022-11-23T03:01:52.552Z,4.00
2022-11-23T03:04:27.155Z,3.97
2022-11-23T03:06:55.700Z,4.01
2022-11-23T03:09:23.883Z,3.83
2022-11-23T03:11:51.848Z,4.28
2022-11-23T03:14:19.694Z,4.04
2022-11-23T03:16:53.445Z,4.26
2022-11-23T03:19:21.650Z,4.18
2022-11-23T03:21:51.539Z,4.29
2022-11-23T03:24:19.393Z,4.37
2022-11-23T03:26:48.776Z,4.59
2022-11-23T03:29:20.742Z,4.39
2022-11-23T03:31:48.960Z,4.33
2022-11-23T03:34:20.242Z,4.29
2022-11-23T03:36:49.810Z,4.10
2022-11-23T03:39:17.770Z,4.17
2022-11-23T03:41:51.786Z,4.33
2022-11-23T03:44:22.376Z,4.45
2022-11-23T03:46:51.440Z,4.67
2022-11-23T03:49:20.629Z,4.37
2022-11-23T03:51:48.430Z,4.79
2022-11-23T03:54:16.204Z,4.46
2022-11-23T03:56:44.093Z,4.77
2022-11-23T03:59:12.325Z,4.77
2022-11-23T04:01:40.183Z,4.66
2022-11-23T04:04:12.033Z,4.58
2022-11-23T04:07:04.373Z,4.55
2022-11-23T04:09:35.494Z,4.57
2022-11-23T04:12:06.676Z,4.53
2022-11-23T04:14:37.339Z,4.74
2022-11-23T04:17:05.672Z,4.57
2022-11-23T04:19:34.404Z,4.66
2022-11-23T04:22:04.280Z,4.59
2022-11-23T04:24:38.428Z,4.65
2022-11-23T04:27:08.187Z,4.66
2022-11-23T04:29:35.950Z,4.54
2022-11-23T04:32:03.819Z,4.51
2022-11-23T04:34:31.667Z,4.63
2022-11-23T04:37:01.866Z,4.54
2022-11-23T04:39:37.369Z,4.47
2022-11-23T04:42:16.993Z,4.53
2022-11-23T04:44:50.600Z,4.57
2022-11-23T04:47:19.078Z,4.63
2022-11-23T04:49:48.745Z,4.67
2022-11-23T04:52:17.221Z,4.75
2022-11-23T04:54:49.202Z,4.65
2022-11-23T04:57:17.115Z,4.67
2022-11-23T04:59:46.618Z,4.67
2022-11-23T05:02:15.511Z,4.68
2022-11-23T05:04:52.516Z,4.68
2022-11-23T05:07:21.360Z,4.60
2022-11-23T05:09:56.922Z,4.66
2022-11-23T05:12:24.692Z,4.70
2022-11-23T05:14:52.643Z,4.70
2022-11-23T05:17:25.398Z,4.68
2022-11-23T05:19:55.776Z,4.71
2022-11-23T05:22:24.150Z,5.00
2022-11-23T05:24:52.023Z,4.84
2022-11-23T05:27:24.130Z,4.88
2022-11-23T05:29:52.126Z,5.10
2022-11-23T05:32:19.971Z,4.89
2022-11-23T05:34:48.727Z,5.06
2022-11-23T05:37:18.306Z,5.24
2022-11-23T05:40:01.699Z,5.32
2022-11-23T05:42:32.920Z,5.06
2022-11-23T05:45:11.660Z,5.06
2022-11-23T05:47:43.653Z,5.33
2022-11-23T05:50:20.881Z,5.07
2022-11-23T05:52:48.709Z,5.19
2022-11-23T05:55:17.111Z,5.30
2022-11-23T05:57:47.336Z,5.09
2022-11-23T06:00:16.423Z,5.32
2022-11-23T06:02:59.486Z,5.32
2022-11-23T06:05:27.311Z,5.18
2022-11-23T06:07:55.197Z,5.20
2022-11-23T06:10:27.789Z,5.07
2022-11-23T06:13:03.342Z,5.12
2022-11-23T06:15:31.861Z,5.22
2022-11-23T06:18:03.209Z,5.05
2022-11-23T06:20:44.968Z,5.27
2022-11-23T06:23:13.230Z,5.27
2022-11-23T06:25:41.814Z,5.13
2022-11-23T06:28:29.104Z,5.18
2022-11-23T06:31:03.472Z,5.22
2022-11-23T06:33:32.483Z,5.28
2022-11-23T06:36:02.446Z,5.17
2022-11-23T06:38:45.173Z,5.22
2022-11-23T06:41:17.719Z,5.30
2022-11-23T06:43:49.247Z,5.27
2022-11-23T06:46:26.265Z,5.19
2022-11-23T06:48:54.085Z,5.56
2022-11-23T06:51:21.951Z,5.47
2022-11-23T06:53:51.681Z,5.74
2022-11-23T06:56:19.701Z,5.97
2022-11-23T06:58:49.125Z,5.85
2022-11-23T07:01:21.929Z,5.97
2022-11-23T07:03:56.403Z,6.05
2022-11-23T07:06:31.211Z,6.10
2022-11-23T07:09:03.708Z,5.90
2022-11-23T07:11:49.962Z,6.11
2022-11-23T07:14:20.122Z,5.66
2022-11-23T07:16:51.034Z,5.94
2022-11-23T07:19:20.244Z,5.83
2022-11-23T07:21:49.378Z,5.88
2022-11-23T07:24:18.123Z,5.79
2022-11-23T07:26:45.944Z,5.51
2022-11-23T07:29:13.920Z,5.64
2022-11-23T07:31:43.225Z,5.64
2022-11-23T07:34:11.286Z,5.50
2022-11-23T07:36:39.287Z,5.52
2022-11-23T07:39:07.098Z,5.55
2022-11-23T07:41:34.966Z,5.60
2022-11-23T07:44:25.700Z,5.79
2022-11-23T07:46:55.667Z,5.80
2022-11-23T07:49:23.430Z,5.71
2022-11-23T07:51:51.267Z,5.85
2022-11-23T07:54:23.464Z,6.04
2022-11-23T07:56:51.662Z,5.99
2022-11-23T07:59:19.411Z,6.06
2022-11-23T08:01:51.232Z,6.19
2022-11-23T08:04:22.902Z,6.15
2022-11-23T08:06:50.775Z,6.06
2022-11-23T08:09:19.421Z,6.11
2022-11-23T08:11:47.260Z,6.40
2022-11-23T08:14:15.217Z,6.36
2022-11-23T08:16:42.963Z,6.19
2022-11-23T08:19:11.003Z,6.36
2022-11-23T08:21:40.333Z,6.43
2022-11-23T08:24:08.682Z,6.38
2022-11-23T08:26:36.859Z,6.36
2022-11-23T08:29:05.555Z,6.65
2022-11-23T08:31:33.362Z,6.63
2022-11-23T08:34:03.613Z,6.74
2022-11-23T08:36:31.892Z,6.65
2022-11-23T08:39:01.099Z,6.73
2022-11-23T08:41:29.039Z,6.83
2022-11-23T08:43:56.833Z,6.70
2022-11-23T08:46:25.066Z,6.73
2022-11-23T08:48:53.122Z,6.81
2022-11-23T08:51:22.889Z,6.87
2022-11-23T08:53:50.762Z,6.76
2022-11-23T08:56:19.889Z,6.84
2022-11-23T08:58:48.027Z,7.17
2022-11-23T09:01:17.882Z,7.04
2022-11-23T09:03:46.509Z,6.81
2022-11-23T09:06:14.368Z,6.92
2022-11-23T09:08:42.179Z,7.25
2022-11-23T09:11:14.238Z,7.29
2022-11-23T09:13:43.336Z,7.12
2022-11-23T09:16:11.163Z,7.45
2022-11-23T09:18:39.050Z,7.17
2022-11-23T09:21:07.444Z,7.24
2022-11-23T09:23:35.309Z,7.39
2022-11-23T09:26:04.828Z,7.63
2022-11-23T09:28:33.858Z,7.49
2022-11-23T09:31:05.555Z,7.59
2022-11-23T09:33:33.333Z,7.52
2022-11-23T09:36:01.874Z,7.74
2022-11-23T09:38:54.625Z,7.72
2022-11-23T09:41:36.115Z,7.79
2022-11-23T09:44:09.210Z,7.69
2022-11-23T09:46:50.058Z,7.89
2022-11-23T09:49:19.804Z,7.98
2022-11-23T09:51:48.592Z,7.96
2022-11-23T09:54:25.782Z,7.92
2022-11-23T09:57:01.393Z,7.96
2022-11-23T09:59:41.837Z,8.09
2022-11-23T10:02:20.938Z,8.15
2022-11-23T10:04:49.122Z,7.89
2022-11-23T10:07:31.801Z,8.18
2022-11-23T10:10:11.327Z,8.09
2022-11-23T10:12:48.922Z,8.26
2022-11-23T10:15:25.304Z,8.14
2022-11-23T10:18:19.673Z,8.07
2022-11-23T10:21:00.628Z,8.42
2022-11-23T10:23:51.723Z,8.18
2022-11-23T10:26:22.123Z,8.66
2022-11-23T10:28:51.808Z,8.55
2022-11-23T10:31:22.107Z,8.71
2022-11-23T10:33:56.979Z,8.95
2022-11-23T10:36:24.811Z,9.14
2022-11-23T10:38:58.672Z,9.08
2022-11-23T10:41:27.084Z,8.95
2022-11-23T10:44:01.192Z,9.17
2022-11-23T10:46:32.137Z,9.37
2022-11-23T10:52:07.465Z,9.68
2022-11-23T10:54:37.679Z,9.66
2022-11-23T10:57:22.850Z,9.82
2022-11-23T11:00:01.258Z,10.46
2022-11-23T11:02:30.791Z,10.93
2022-11-23T11:05:16.443Z,11.23
2022-11-23T11:07:45.781Z,10.94
2022-11-23T11:10:35.357Z,11.18
2022-11-23T11:13:03.858Z,11.24
2022-11-23T11:15:31.678Z,11.41
2022-11-23T11:18:00.809Z,11.29
2022-11-23T11:20:35.163Z,11.02
2022-11-23T11:23:17.172Z,11.09
2022-11-23T11:25:45.610Z,11.28
2022-11-23T11:28:23.683Z,10.98
2022-11-23T11:31:04.173Z,11.19
2022-11-23T11:33:42.128Z,11.36
2022-11-23T11:36:13.165Z,11.00
2022-11-23T11:39:07.764Z,11.04
2022-11-23T11:41:35.131Z,11.13
2022-11-23T11:44:09.626Z,10.89
2022-11-23T11:46:42.879Z,11.36
2022-11-23T11:49:16.608Z,12.03
2022-11-23T11:51:49.224Z,12.10
2022-11-23T11:54:25.747Z,11.46
2022-11-23T11:56:56.883Z,12.07
2022-11-23T11:59:30.516Z,11.83
2022-11-23T12:02:09.042Z,11.47
2022-11-23T12:04:42.544Z,11.65
2022-11-23T12:07:15.671Z,12.13
2022-11-23T12:09:49.499Z,11.71
2022-11-23T12:12:19.440Z,11.62
2022-11-23T12:14:47.762Z,11.06
2022-11-23T12:17:36.529Z,12.05
2022-11-23T12:20:17.403Z,12.45
2022-11-23T12:22:59.613Z,12.21
2022-11-23T12:25:36.711Z,11.85
2022-11-23T12:28:19.279Z,11.70
2022-11-23T12:30:54.008Z,11.93
2022-11-23T12:33:44.703Z,11.90
2022-11-23T12:36:27.672Z,11.90
2022-11-23T12:38:57.079Z,11.72
2022-11-23T12:41:36.419Z,11.94
2022-11-23T12:44:35.268Z,11.42
2022-11-23T12:47:16.026Z,11.93
2022-11-23T12:49:52.014Z,11.99
2022-11-23T12:52:34.781Z,12.51
2022-11-23T12:55:19.791Z,12.54
2022-11-23T12:57:56.300Z,12.80
2022-11-23T13:00:25.832Z,12.36
2022-11-23T13:03:32.436Z,12.47
2022-11-23T13:06:44.041Z,11.71
2022-11-23T13:09:40.724Z,12.36
2022-11-23T13:12:13.870Z,12.70
2022-11-23T13:14:55.131Z,12.15
2022-11-23T13:17:33.509Z,12.03
2022-11-23T13:20:16.099Z,11.82
2022-11-23T13:22:46.057Z,11.47
2022-11-23T13:25:23.934Z,11.40
2022-11-23T13:28:00.718Z,11.53
2022-11-23T13:30:59.187Z,11.40
2022-11-23T13:33:31.797Z,11.42
2022-11-23T13:36:09.479Z,11.35
2022-11-23T13:38:42.865Z,11.14
2022-11-23T13:41:53.500Z,11.07
2022-11-23T13:44:22.793Z,10.99
2022-11-23T13:47:05.018Z,10.98
2022-11-23T13:49:41.894Z,10.95
2022-11-23T13:52:31.164Z,11.24
2022-11-23T13:55:09.818Z,10.94
2022-11-23T13:57:39.452Z,11.14
2022-11-23T14:00:45.143Z,10.85
2022-11-23T14:03:55.779Z,10.82
2022-11-23T14:06:37.718Z,11.06
2022-11-23T14:09:12.383Z,11.07
2022-11-23T14:11:52.376Z,10.67
2022-11-23T14:14:23.703Z,10.57
2022-11-23T14:17:12.499Z,10.48
2022-11-23T14:20:00.987Z,10.43
2022-11-23T14:22:41.041Z,10.48
2022-11-23T14:25:28.508Z,10.30
2022-11-23T14:28:06.339Z,10.33
2022-11-23T14:30:45.506Z,10.27
2022-11-23T14:33:25.456Z,10.20
2022-11-23T14:36:04.006Z,10.20
2022-11-23T14:38:58.207Z,10.09
2022-11-23T14:41:29.442Z,10.14
2022-11-23T14:44:01.182Z,10.06
2022-11-23T14:46:29.195Z,9.94
2022-11-23T14:49:05.692Z,9.74
2022-11-23T14:51:36.686Z,9.78
2022-11-23T14:54:10.502Z,9.75
2022-11-23T14:56:43.823Z,9.58
2022-11-23T14:59:22.327Z,9.69
2022-11-23T15:01:53.577Z,9.56
2022-11-23T15:04:27.113Z,9.33
2022-11-23T15:07:01.920Z,9.25
2022-11-23T15:09:51.272Z,9.08
2022-11-23T15:12:23.531Z,9.02
2022-11-23T15:14:52.273Z,8.89
2022-11-23T15:17:22.488Z,8.67
2022-11-23T15:19:57.903Z,8.40
2022-11-23T15:22:28.737Z,8.19
2022-11-23T15:25:08.257Z,8.18
2022-11-23T15:27:41.217Z,8.07
2022-11-23T15:30:17.391Z,7.87
2022-11-23T15:32:45.698Z,7.82
2022-11-23T15:35:16.720Z,7.83
2022-11-23T15:37:48.364Z,7.73
2022-11-23T15:40:18.814Z,7.70
2022-11-23T15:42:47.808Z,7.50
2022-11-23T15:45:35.664Z,7.44
2022-11-23T15:48:05.630Z,7.39
2022-11-23T15:50:34.541Z,7.15
2022-11-23T15:53:04.077Z,7.23
2022-11-23T15:55:32.152Z,7.14
2022-11-23T15:58:10.108Z,6.95
2022-11-23T16:00:38.236Z,6.97
2022-11-23T16:03:33.233Z,6.88
2022-11-23T16:06:17.333Z,6.77
2022-11-23T16:08:47.017Z,6.62
2022-11-23T16:11:30.952Z,6.40
2022-11-23T16:14:16.563Z,6.45
2022-11-23T16:16:46.596Z,6.45
2022-11-23T16:19:24.530Z,6.48
2022-11-23T16:22:02.009Z,6.51
2022-11-23T16:24:34.057Z,6.34
2022-11-23T16:27:03.360Z,6.37
2022-11-23T16:29:36.088Z,6.26
2022-11-23T16:32:07.031Z,5.89
2022-11-23T16:34:35.438Z,6.15
2022-11-23T16:37:04.602Z,6.25
2022-11-23T16:39:33.778Z,5.82
2022-11-23T16:42:01.787Z,6.06
2022-11-23T16:44:31.235Z,6.19
2022-11-23T16:47:21.579Z,6.02
2022-11-23T16:49:53.134Z,5.97
2022-11-23T16:52:22.648Z,5.95
2022-11-23T16:54:53.469Z,5.72
2022-11-23T16:57:28.715Z,5.49
2022-11-23T16:59:57.029Z,5.25
2022-11-23T17:02:25.366Z,5.24
2022-11-23T17:04:53.253Z,5.15
2022-11-23T17:07:21.191Z,5.26
2022-11-23T17:09:49.069Z,5.09
2022-11-23T17:12:20.743Z,5.08
2022-11-23T17:14:50.476Z,5.09
2022-11-23T17:17:22.020Z,5.01
2022-11-23T17:19:51.174Z,4.88
2022-11-23T17:22:19.969Z,4.87
2022-11-23T17:24:48.532Z,5.04
2022-11-23T17:27:21.327Z,5.22
2022-11-23T17:29:56.331Z,5.06
2022-11-23T17:32:55.231Z,5.23
2022-11-23T17:35:22.566Z,4.81
2022-11-23T17:37:50.346Z,4.91
2022-11-23T17:40:19.879Z,4.94
2022-11-23T17:42:49.534Z,4.91
2022-11-23T17:45:18.024Z,5.09
2022-11-23T17:47:46.564Z,5.18
2022-11-23T17:50:19.378Z,5.26
2022-11-23T17:52:47.714Z,5.35
2022-11-23T17:55:16.880Z,5.53
2022-11-23T17:57:44.698Z,5.59
2022-11-23T18:00:18.628Z,5.65
2022-11-23T18:02:46.553Z,5.74
2022-11-23T18:05:20.902Z,5.79
2022-11-23T18:07:49.844Z,5.93
2022-11-23T18:10:18.124Z,5.97
2022-11-23T18:12:46.744Z,6.05
2022-11-23T18:15:16.311Z,6.11
2022-11-23T18:17:44.181Z,6.15
2022-11-23T18:20:13.419Z,6.24
2022-11-23T18:22:41.248Z,6.29
2022-11-23T18:25:10.079Z,6.35
2022-11-23T18:27:41.903Z,6.33
2022-11-23T18:30:10.883Z,6.32
2022-11-23T18:32:40.056Z,6.41
2022-11-23T18:35:09.059Z,6.40
2022-11-23T18:37:36.888Z,6.42
2022-11-23T18:40:05.204Z,6.48
2022-11-23T18:42:33.082Z,6.53
2022-11-23T18:45:01.256Z,6.53
2022-11-23T18:47:29.136Z,6.51
2022-11-23T18:50:02.078Z,6.62
2022-11-23T18:52:33.902Z,6.56
2022-11-23T18:55:01.649Z,6.59
2022-11-23T18:57:30.152Z,6.58
2022-11-23T18:59:58.766Z,6.56
2022-11-23T19:02:27.840Z,6.62
2022-11-23T19:04:55.859Z,6.73
2022-11-23T19:07:27.091Z,6.55
2022-11-23T19:09:55.566Z,6.62
2022-11-23T19:12:23.605Z,6.78
2022-11-23T19:14:51.400Z,6.49
2022-11-23T19:17:19.347Z,6.75
2022-11-23T19:19:47.148Z,6.80
2022-11-23T19:22:15.100Z,6.88
2022-11-23T19:24:44.328Z,6.87
2022-11-23T19:27:12.180Z,6.72
2022-11-23T19:29:40.044Z,6.59
2022-11-23T19:32:07.964Z,6.64
2022-11-23T19:34:36.010Z,6.50
2022-11-23T19:37:03.818Z,6.42
2022-11-23T19:39:31.872Z,6.47
2022-11-23T19:42:01.366Z,6.57
2022-11-23T19:44:29.360Z,6.46
2022-11-23T19:46:57.325Z,6.39
2022-11-23T19:49:25.156Z,6.32
2022-11-23T19:51:53.735Z,6.30
2022-11-23T19:54:21.657Z,6.33
2022-11-23T19:56:50.707Z,6.33
2022-11-23T19:59:19.846Z,6.42
2022-11-23T20:01:48.036Z,6.43
2022-11-23T20:04:15.916Z,6.42
2022-11-23T20:06:43.737Z,6.48
2022-11-23T20:09:13.436Z,6.37
2022-11-23T20:11:44.754Z,6.52
2022-11-23T20:14:15.346Z,6.36
2022-11-23T20:16:44.491Z,6.44
2022-11-23T20:19:12.555Z,6.42
2022-11-23T20:21:40.423Z,6.41
2022-11-23T20:24:12.160Z,6.30
2022-11-23T20:26:41.108Z,6.62
2022-11-23T20:29:10.025Z,6.54
2022-11-23T20:31:38.527Z,6.73
2022-11-23T20:34:10.720Z,6.38
2022-11-23T20:36:41.049Z,6.59
2022-11-23T20:39:11.906Z,6.38
2022-11-23T20:41:39.822Z,6.44
2022-11-23T20:44:11.608Z,6.47
2022-11-23T20:49:29.801Z,6.30
2022-11-23T20:51:57.550Z,6.50
2022-11-23T20:54:25.436Z,6.52
2022-11-23T20:56:53.232Z,6.42
2022-11-23T20:59:21.086Z,6.32
2022-11-23T21:01:48.912Z,6.21
2022-11-23T21:04:16.946Z,6.48
2022-11-23T21:06:46.089Z,6.61
2022-11-23T21:09:13.888Z,6.53
2022-11-23T21:11:59.379Z,6.58
2022-11-23T21:14:30.513Z,6.37
2022-11-23T21:17:00.323Z,6.55
2022-11-23T21:19:29.484Z,6.62
2022-11-23T21:21:59.652Z,6.61
2022-11-23T21:24:27.610Z,6.44
2022-11-23T21:26:55.555Z,6.55
2022-11-23T21:29:23.812Z,6.36
2022-11-23T21:31:51.978Z,6.37
2022-11-23T21:34:21.805Z,6.69
2022-11-23T21:36:49.910Z,6.90
2022-11-23T21:39:20.050Z,6.97
2022-11-23T21:41:49.871Z,6.60
2022-11-23T21:44:18.363Z,6.72
2022-11-23T21:46:46.507Z,6.85
2022-11-23T21:49:14.235Z,6.96
2022-11-23T21:51:42.740Z,6.43
2022-11-23T21:54:14.097Z,6.71
2022-11-23T21:56:44.358Z,6.71
2022-11-23T21:59:12.495Z,6.84
2022-11-23T22:01:40.875Z,6.66
2022-11-23T22:04:11.218Z,6.77
2022-11-23T22:06:40.108Z,6.94
2022-11-23T22:09:09.330Z,6.92
2022-11-23T22:11:41.127Z,6.74
2022-11-23T22:14:12.743Z,6.48
2022-11-23T22:16:42.745Z,6.73
2022-11-23T22:19:11.722Z,6.68
2022-11-23T22:21:41.165Z,6.51
2022-11-23T22:24:12.973Z,6.57
2022-11-23T22:26:41.039Z,6.40
2022-11-23T22:29:12.084Z,6.30
2022-11-23T22:31:40.521Z,6.57
2022-11-23T22:34:11.673Z,6.57
2022-11-23T22:36:39.590Z,6.54
2022-11-23T22:39:08.434Z,6.45
2022-11-23T22:41:37.912Z,6.60
2022-11-23T22:44:07.844Z,6.73
2022-11-23T22:46:37.902Z,6.51
2022-11-23T22:49:06.240Z,6.48
2022-11-23T22:51:34.129Z,6.57
2022-11-23T22:54:02.424Z,6.65
2022-11-23T22:56:31.565Z,6.69
2022-11-23T22:59:00.180Z,6.61
2022-11-23T23:01:29.837Z,6.68
2022-11-23T23:04:01.272Z,6.76
2022-11-23T23:06:31.259Z,6.83
2022-11-23T23:09:01.233Z,6.74
2022-11-23T23:11:30.430Z,6.69
2022-11-23T23:13:58.727Z,6.73
2022-11-23T23:16:27.666Z,6.61
2022-11-23T23:18:56.577Z,6.57
2022-11-23T23:21:27.263Z,6.52
2022-11-23T23:23:57.054Z,6.65
2022-11-23T23:26:27.116Z,6.76
2022-11-23T23:28:56.249Z,6.77
2022-11-23T23:31:25.070Z,6.85
2022-11-23T23:33:53.837Z,6.81
2022-11-23T23:36:23.053Z,6.78
2022-11-23T23:38:52.436Z,6.89
2022-11-23T23:41:20.445Z,7.03
2022-11-23T23:43:48.850Z,6.92
2022-11-23T23:46:17.140Z,6.81
2022-11-23T23:48:44.936Z,6.92
2022-11-23T23:51:14.586Z,6.82
2022-11-23T23:53:43.062Z,7.14
2022-11-23T23:56:16.858Z,6.97
2022-11-23T23:58:45.320Z,6.98
